Time;durP1;ratioP1;P1;durP2;ratioP2;P2;SDS_P1;SDS_P2;PMS_P1;PMS_P2;Temp;Humidity;BMP_temperature;BMP_pressure;BME280_temperature;BME280_humidity;BME280_pressure;Samples;Min_cycle;Max_cycle;Signal;HPM_P1;HPM_P2
2022/12/10 00:01:10;;;;;;;45.00;22.75;;;-1.10;99.90;;;;;;5061600;28;20131;-62
2022/12/10 00:03:36;;;;;;;50.38;23.02;;;-1.10;99.90;;;;;;5085500;28;20047;-61
2022/12/10 00:06:04;;;;;;;49.38;22.95;;;-1.10;99.90;;;;;;5070504;28;20286;-63
2022/12/10 00:08:30;;;;;;;53.08;23.85;;;-1.10;99.90;;;;;;5071534;28;20032;-61
2022/12/10 00:10:56;;;;;;;47.63;23.15;;;-1.10;99.90;;;;;;5072227;28;20040;-61
2022/12/10 00:13:22;;;;;;;45.42;21.70;;;-1.10;99.90;;;;;;5057265;28;20392;-61
2022/12/10 00:15:48;;;;;;;53.70;23.92;;;-1.10;99.90;;;;;;5074640;28;20068;-62
2022/12/10 00:18:13;;;;;;;48.72;22.92;;;-1.20;99.90;;;;;;5074634;28;20079;-60
2022/12/10 00:20:39;;;;;;;49.83;22.70;;;-1.20;99.90;;;;;;5074337;28;20105;-62
2022/12/10 00:23:04;;;;;;;47.67;23.70;;;-1.30;99.90;;;;;;5040726;28;20093;-61
2022/12/10 00:25:32;;;;;;;54.55;22.50;;;-1.20;99.90;;;;;;5069745;28;20415;-61
2022/12/10 00:27:57;;;;;;;48.83;22.42;;;-1.20;99.90;;;;;;5054640;28;20083;-61
2022/12/10 00:30:23;;;;;;;51.03;24.02;;;-1.10;99.90;;;;;;5054201;28;20037;-63
2022/12/10 00:32:48;;;;;;;46.17;21.27;;;-1.20;99.90;;;;;;5054482;28;20116;-63
2022/12/10 00:35:14;;;;;;;48.40;21.35;;;-1.20;99.90;;;;;;5054394;28;20098;-61
2022/12/10 00:37:40;;;;;;;51.13;22.33;;;-1.20;99.90;;;;;;5054194;28;20116;-59
2022/12/10 00:40:06;;;;;;;51.92;24.17;;;-1.30;99.90;;;;;;5054139;28;20056;-61
2022/12/10 00:42:32;;;;;;;50.42;23.15;;;-1.30;99.90;;;;;;5054438;28;20036;-63
2022/12/10 00:44:57;;;;;;;52.35;24.90;;;-1.30;99.90;;;;;;5054158;28;20047;-61
2022/12/10 00:47:23;;;;;;;49.25;22.65;;;-1.30;99.90;;;;;;5054174;28;20060;-61
2022/12/10 00:49:48;;;;;;;51.45;23.80;;;-1.30;99.90;;;;;;5053864;28;20045;-63
2022/12/10 00:52:14;;;;;;;48.67;21.83;;;-1.30;99.90;;;;;;5053243;28;20065;-62
2022/12/10 00:54:39;;;;;;;52.00;25.02;;;-1.40;99.90;;;;;;5053915;28;20041;-61
2022/12/10 00:57:05;;;;;;;56.10;23.48;;;-1.30;99.90;;;;;;5054311;28;20045;-61
2022/12/10 00:59:31;;;;;;;54.50;26.75;;;-1.40;99.90;;;;;;5054357;28;20028;-61
2022/12/10 01:01:56;;;;;;;54.17;23.85;;;-1.30;99.90;;;;;;5052875;28;20497;-61
2022/12/10 01:04:22;;;;;;;58.42;26.15;;;-1.30;99.90;;;;;;5054289;28;20120;-62
2022/12/10 01:06:51;;;;;;;48.38;22.85;;;-1.40;99.90;;;;;;5053955;28;20052;-62
2022/12/10 01:09:20;;;;;;;49.53;24.85;;;-1.40;99.90;;;;;;5053436;28;20128;-62
2022/12/10 01:11:47;;;;;;;52.13;24.02;;;-1.30;99.90;;;;;;5054323;28;20416;-61
2022/12/10 01:14:18;;;;;;;51.47;22.42;;;-1.30;99.90;;;;;;5053922;28;20029;-61
2022/12/10 01:16:44;;;;;;;52.85;23.50;;;-1.30;99.90;;;;;;5053855;28;20722;-61
2022/12/10 01:19:11;;;;;;;53.20;22.67;;;-1.30;99.90;;;;;;5053732;28;20072;-62
2022/12/10 01:21:36;;;;;;;49.95;23.55;;;-1.30;99.90;;;;;;5053842;28;20084;-61
2022/12/10 01:24:03;;;;;;;51.13;21.98;;;-1.30;99.90;;;;;;5052281;28;20370;-62
2022/12/10 01:26:32;;;;;;;53.10;24.08;;;-1.30;99.90;;;;;;5065148;28;20110;-59
2022/12/10 01:28:58;;;;;;;54.78;25.42;;;-1.20;99.90;;;;;;5073420;28;20391;-60
2022/12/10 01:31:31;;;;;;;57.40;25.05;;;-1.20;99.90;;;;;;5056118;28;20443;-61
2022/12/10 01:33:58;;;;;;;54.58;23.35;;;-1.30;99.90;;;;;;5073360;28;20032;-61
2022/12/10 01:36:32;;;;;;;50.08;23.58;;;-1.30;99.90;;;;;;5073602;28;20041;-60
2022/12/10 01:38:58;;;;;;;51.13;23.88;;;-1.20;99.90;;;;;;5072969;28;20052;-60
2022/12/10 01:41:27;;;;;;;50.95;23.25;;;-1.30;99.90;;;;;;5073220;28;20487;-60
2022/12/10 01:44:03;;;;;;;57.40;24.33;;;-1.30;99.90;;;;;;5073206;28;20055;-61
2022/12/10 01:46:37;;;;;;;53.15;24.75;;;-1.20;99.90;;;;;;5072913;28;20036;-60
2022/12/10 01:49:08;;;;;;;52.95;22.30;;;-1.20;99.90;;;;;;5072762;28;20407;-60
2022/12/10 01:51:37;;;;;;;55.70;23.55;;;-1.10;99.90;;;;;;5073313;28;20353;-63
2022/12/10 01:54:06;;;;;;;55.03;24.60;;;-1.10;99.90;;;;;;5072947;28;20107;-61
2022/12/10 01:56:36;;;;;;;56.55;23.98;;;-1.10;99.90;;;;;;5054936;28;20048;-61
2022/12/10 01:59:01;;;;;;;51.88;24.38;;;-1.10;99.90;;;;;;5072667;28;20052;-61
2022/12/10 02:01:54;;;;;;;54.05;23.73;;;-1.00;99.90;;;;;;5072376;28;20111;-61
2022/12/10 02:04:57;;;;;;;62.72;24.45;;;-1.20;99.90;;;;;;5072653;28;20074;-61
2022/12/10 02:07:36;;;;;;;53.80;24.83;;;-1.20;99.90;;;;;;5060145;28;20036;-62
2022/12/10 02:10:01;;;;;;;52.50;23.52;;;-1.20;99.90;;;;;;5054289;28;20052;-61
2022/12/10 02:12:48;;;;;;;51.28;23.65;;;-1.10;99.90;;;;;;5072560;28;20037;-62
2022/12/10 02:15:22;;;;;;;51.20;23.73;;;-1.20;99.90;;;;;;5072084;28;20072;-61
2022/12/10 02:18:19;;;;;;;54.83;21.40;;;-1.20;99.90;;;;;;5054290;28;20356;-61
2022/12/10 02:20:48;;;;;;;52.75;24.10;;;-1.20;99.90;;;;;;5072193;28;20167;-60
2022/12/10 02:23:40;;;;;;;50.35;24.15;;;-1.20;99.90;;;;;;5072598;28;20048;-61
2022/12/10 02:26:08;;;;;;;59.88;25.00;;;-1.30;99.90;;;;;;5071922;28;20091;-60
2022/12/10 02:29:12;;;;;;;53.95;22.23;;;-1.30;99.90;;;;;;5072346;28;20380;-62
2022/12/10 02:31:42;;;;;;;51.90;24.65;;;-1.30;99.90;;;;;;5072143;28;20121;-62
2022/12/10 02:34:10;;;;;;;54.25;23.70;;;-1.30;99.90;;;;;;5072140;28;20060;-61
2022/12/10 02:36:41;;;;;;;49.10;23.88;;;-1.40;99.90;;;;;;5072316;28;20040;-60
2022/12/10 02:39:11;;;;;;;55.22;24.90;;;-1.30;99.90;;;;;;5072423;28;20058;-61
2022/12/10 02:41:40;;;;;;;52.65;23.85;;;-1.30;99.90;;;;;;5072740;28;20041;-63
2022/12/10 02:44:10;;;;;;;52.75;24.58;;;-1.40;99.90;;;;;;5072193;28;20453;-61
2022/12/10 02:46:38;;;;;;;58.60;23.90;;;-1.40;99.90;;;;;;5071918;28;20054;-61
2022/12/10 02:49:05;;;;;;;62.10;24.17;;;-1.50;99.90;;;;;;5071721;28;20036;-63
2022/12/10 02:51:31;;;;;;;48.53;22.33;;;-1.50;99.90;;;;;;5071977;28;20037;-60
2022/12/10 02:54:05;;;;;;;53.90;23.55;;;-1.60;99.90;;;;;;5071672;28;20044;-60
2022/12/10 02:56:57;;;;;;;52.67;23.13;;;-1.60;99.90;;;;;;5071478;28;20078;-61
2022/12/10 02:59:33;;;;;;;59.75;24.13;;;-1.60;99.90;;;;;;5071186;28;20329;-61
2022/12/10 03:02:20;;;;;;;54.67;23.73;;;-1.60;99.90;;;;;;5071634;28;20146;-60
2022/12/10 03:04:46;;;;;;;54.88;24.00;;;-1.60;99.90;;;;;;5071451;28;20048;-60
2022/12/10 03:07:21;;;;;;;51.55;24.13;;;-1.60;99.90;;;;;;5071489;28;20051;-62
2022/12/10 03:09:58;;;;;;;56.65;26.10;;;-1.70;99.90;;;;;;5071095;28;20040;-60
2022/12/10 03:12:38;;;;;;;55.80;24.55;;;-1.60;99.90;;;;;;5059070;28;20071;-62
2022/12/10 03:15:08;;;;;;;50.70;23.60;;;-1.70;99.90;;;;;;5071371;28;20615;-63
2022/12/10 03:17:36;;;;;;;61.25;24.13;;;-1.70;99.90;;;;;;5071687;28;20040;-62
2022/12/10 03:20:03;;;;;;;56.47;23.33;;;-1.70;99.90;;;;;;5071075;28;20123;-59
2022/12/10 03:22:30;;;;;;;51.13;22.48;;;-1.70;99.90;;;;;;5057283;28;20778;-61
2022/12/10 03:24:57;;;;;;;57.28;24.83;;;-1.70;99.90;;;;;;5071275;28;20037;-60
2022/12/10 03:27:24;;;;;;;54.10;22.75;;;-1.60;99.90;;;;;;5053159;28;20067;-59
2022/12/10 03:29:53;;;;;;;59.13;26.13;;;-1.70;99.90;;;;;;5070562;28;20392;-60
2022/12/10 03:32:21;;;;;;;55.60;25.75;;;-1.70;99.90;;;;;;5071183;28;20405;-60
2022/12/10 03:34:48;;;;;;;59.15;24.85;;;-1.70;99.90;;;;;;5071024;28;20453;-59
2022/12/10 03:37:14;;;;;;;65.78;25.65;;;-1.70;99.90;;;;;;5071710;28;20086;-59
2022/12/10 03:39:41;;;;;;;60.05;25.55;;;-1.70;99.90;;;;;;5071034;28;20051;-62
2022/12/10 03:42:07;;;;;;;60.78;26.08;;;-1.80;99.90;;;;;;5071601;28;20050;-61
2022/12/10 03:44:35;;;;;;;57.42;24.45;;;-1.80;99.90;;;;;;5071146;28;20431;-58
2022/12/10 03:47:03;;;;;;;56.42;23.08;;;-1.80;99.90;;;;;;5074674;28;20063;-60
2022/12/10 03:49:29;;;;;;;56.03;24.02;;;-1.90;99.90;;;;;;5074962;28;20044;-60
2022/12/10 03:51:55;;;;;;;60.00;25.73;;;-1.90;99.90;;;;;;5075406;28;20326;-63
2022/12/10 03:54:21;;;;;;;57.45;24.42;;;-1.90;99.90;;;;;;5075117;28;20478;-62
2022/12/10 03:56:47;;;;;;;54.08;24.25;;;-1.80;99.90;;;;;;5075218;28;20036;-62
2022/12/10 03:59:12;;;;;;;58.17;24.33;;;-1.90;99.90;;;;;;5074626;28;20038;-60
2022/12/10 04:01:38;;;;;;;59.22;23.83;;;-1.90;99.90;;;;;;5075244;28;20364;-61
2022/12/10 04:04:05;;;;;;;51.58;23.45;;;-1.90;99.90;;;;;;5075362;28;20075;-59
2022/12/10 04:06:30;;;;;;;58.38;24.67;;;-1.90;99.90;;;;;;5075000;28;20067;-60
2022/12/10 04:08:56;;;;;;;54.22;24.10;;;-1.90;99.90;;;;;;5074684;28;20036;-61
2022/12/10 04:11:22;;;;;;;54.33;23.27;;;-1.90;99.90;;;;;;5074875;28;20071;-59
2022/12/10 04:16:34;;;;;;;53.53;24.88;;;-2.00;99.90;;;;;;5073328;28;20047;-60
2022/12/10 04:19:11;;;;;;;57.13;24.10;;;-2.00;99.90;;;;;;5074172;28;20111;-58
2022/12/10 04:27:18;;;;;;;50.67;22.58;;;-2.00;99.90;;;;;;5056108;28;20106;-61
2022/12/10 04:29:44;;;;;;;;;;;-2.00;99.90;;;;;;5074724;28;20120;-57
2022/12/10 04:32:10;;;;;;;52.35;23.90;;;-1.90;99.90;;;;;;5074233;28;19970;-60
2022/12/10 04:34:35;;;;;;;55.97;24.92;;;-2.00;99.90;;;;;;5074350;28;20411;-60
2022/12/10 04:37:02;;;;;;;58.85;24.52;;;-2.00;99.90;;;;;;5074789;28;20074;-59
2022/12/10 04:39:28;;;;;;;53.63;22.60;;;-2.00;99.90;;;;;;5074233;28;20036;-61
2022/12/10 04:41:56;;;;;;;53.45;22.63;;;-1.90;99.90;;;;;;5074574;28;20040;-62
2022/12/10 04:44:21;;;;;;;56.47;26.85;;;-1.90;99.90;;;;;;5056776;28;20090;-59
2022/12/10 04:46:47;;;;;;;60.80;25.58;;;-1.80;99.90;;;;;;5074401;28;20040;-59
2022/12/10 04:49:13;;;;;;;64.97;26.52;;;-1.80;99.90;;;;;;5073804;28;20047;-61
2022/12/10 04:51:40;;;;;;;61.78;24.70;;;-1.80;99.90;;;;;;5073388;28;20098;-61
2022/12/10 04:54:06;;;;;;;67.28;26.33;;;-1.80;99.90;;;;;;5073175;28;20047;-60
2022/12/10 04:56:32;;;;;;;94.95;26.63;;;-1.90;99.90;;;;;;5056254;28;20040;-60
2022/12/10 04:58:58;;;;;;;95.70;24.55;;;-1.90;99.90;;;;;;5074181;28;20067;-62
2022/12/10 05:01:25;;;;;;;72.53;24.52;;;-1.90;99.90;;;;;;5073828;28;20093;-60
2022/12/10 05:03:50;;;;;;;74.97;24.38;;;-1.80;99.90;;;;;;5073724;28;20472;-62
2022/12/10 05:06:17;;;;;;;100.25;27.20;;;-1.80;99.90;;;;;;5073669;28;20062;-62
2022/12/10 05:08:43;;;;;;;75.43;24.70;;;-1.70;99.90;;;;;;5073361;28;20134;-63
2022/12/10 05:11:14;;;;;;;87.15;27.80;;;-1.70;99.90;;;;;;5073631;28;20056;-63
2022/12/10 05:13:41;;;;;;;124.78;26.55;;;-1.70;99.90;;;;;;5072654;28;20101;-62
2022/12/10 05:16:10;;;;;;;106.28;25.35;;;-1.60;99.90;;;;;;5072242;28;20036;-61
2022/12/10 05:18:36;;;;;;;95.60;21.13;;;-1.60;99.90;;;;;;5073160;28;20028;-62
2022/12/10 05:21:04;;;;;;;96.03;22.35;;;-1.50;99.90;;;;;;5073823;28;20215;-62
2022/12/10 05:23:32;;;;;;;227.85;28.52;;;-1.40;99.90;;;;;;5073348;28;20063;-61
2022/12/10 05:26:04;;;;;;;104.68;22.85;;;-1.50;99.90;;;;;;5073138;28;20056;-63
2022/12/10 05:28:33;;;;;;;153.80;24.50;;;-1.50;99.90;;;;;;5073209;28;20064;-62
2022/12/10 05:30:59;;;;;;;118.35;22.10;;;-1.60;99.90;;;;;;5073231;28;20091;-62
2022/12/10 05:33:25;;;;;;;249.98;26.13;;;-1.50;99.90;;;;;;5073168;28;20103;-60
2022/12/10 05:35:57;;;;;;;239.32;26.85;;;-1.60;99.90;;;;;;5055390;28;20341;-62
2022/12/10 05:38:23;;;;;;;127.50;21.77;;;-1.60;99.90;;;;;;5055112;28;20472;-62
2022/12/10 05:40:50;;;;;;;162.43;24.42;;;-1.60;99.90;;;;;;5073282;28;20040;-63
2022/12/10 05:43:16;;;;;;;155.88;25.05;;;-1.60;99.90;;;;;;5073067;28;20485;-62
2022/12/10 05:45:42;;;;;;;111.57;21.02;;;-1.60;99.90;;;;;;5072799;28;20119;-62
2022/12/10 05:48:09;;;;;;;160.43;21.60;;;-1.70;99.90;;;;;;5073250;28;20059;-62
2022/12/10 05:50:35;;;;;;;239.75;27.30;;;-1.70;99.90;;;;;;5072994;28;20094;-60
2022/12/10 05:53:01;;;;;;;98.43;20.08;;;-1.60;99.90;;;;;;5073049;28;20444;-61
2022/12/10 05:55:28;;;;;;;70.60;20.60;;;-1.70;99.90;;;;;;5073208;28;20037;-61
2022/12/10 05:57:54;;;;;;;213.18;25.08;;;-1.70;99.90;;;;;;5073679;28;20107;-61
2022/12/10 06:00:23;;;;;;;94.82;20.10;;;-1.60;99.90;;;;;;5073298;28;20048;-62
2022/12/10 06:02:49;;;;;;;151.25;22.02;;;-1.60;99.90;;;;;;5073227;28;20051;-61
2022/12/10 06:05:15;;;;;;;104.35;21.75;;;-1.60;99.90;;;;;;5055085;28;20041;-61
2022/12/10 06:07:41;;;;;;;164.20;22.48;;;-1.60;99.90;;;;;;5073070;28;20051;-61
2022/12/10 06:10:07;;;;;;;180.20;24.60;;;-1.60;99.90;;;;;;5070875;28;20052;-63
2022/12/10 06:12:33;;;;;;;138.15;23.33;;;-1.60;99.90;;;;;;5072938;28;20029;-61
2022/12/10 06:14:59;;;;;;;159.48;24.27;;;-1.70;99.90;;;;;;5072218;28;20036;-62
2022/12/10 06:17:24;;;;;;;102.93;22.63;;;-1.70;99.90;;;;;;5071960;28;20482;-59
2022/12/10 06:19:50;;;;;;;115.00;19.98;;;-1.70;99.90;;;;;;5072279;28;20063;-60
2022/12/10 06:22:15;;;;;;;102.75;20.38;;;-1.80;99.90;;;;;;5072634;28;20322;-61
2022/12/10 06:24:41;;;;;;;121.50;22.45;;;-1.70;99.90;;;;;;5060226;28;20049;-61
2022/12/10 06:27:07;;;;;;;161.02;24.65;;;-1.80;99.90;;;;;;5086519;28;20056;-63
2022/12/10 06:29:32;;;;;;;242.90;26.73;;;-1.70;99.90;;;;;;5055954;28;20044;-61
2022/12/10 06:31:58;;;;;;;166.32;22.48;;;-1.70;99.90;;;;;;5090213;28;20286;-61
2022/12/10 06:34:23;;;;;;;163.48;22.63;;;-1.80;99.90;;;;;;5089274;28;20038;-62
2022/12/10 06:36:49;;;;;;;96.25;19.05;;;-1.70;99.90;;;;;;5071462;28;20036;-61
2022/12/10 06:39:14;;;;;;;125.03;22.88;;;-1.70;99.90;;;;;;5087571;28;20047;-60
2022/12/10 06:41:43;;;;;;;123.28;22.85;;;-1.70;99.90;;;;;;5076717;28;20047;-60
2022/12/10 06:44:12;;;;;;;98.07;20.52;;;-1.60;99.90;;;;;;5054239;28;20075;-62
2022/12/10 06:46:39;;;;;;;95.10;19.63;;;-1.70;99.90;;;;;;5072084;28;20461;-62
2022/12/10 06:49:05;;;;;;;262.63;26.17;;;-1.70;99.90;;;;;;5086383;28;20071;-60
2022/12/10 06:51:31;;;;;;;118.43;22.10;;;-1.80;99.90;;;;;;5072419;28;20322;-60
2022/12/10 06:53:56;;;;;;;161.07;23.17;;;-1.80;99.90;;;;;;5091632;28;20044;-61
2022/12/10 06:56:22;;;;;;;123.07;23.13;;;-1.70;99.90;;;;;;5077647;28;20036;-59
2022/12/10 06:58:48;;;;;;;145.23;24.15;;;-1.80;99.90;;;;;;5091947;28;20051;-61
2022/12/10 07:01:20;;;;;;;141.82;24.08;;;-1.70;99.90;;;;;;5070678;28;20056;-60
2022/12/10 07:03:49;;;;;;;189.57;24.92;;;-1.70;99.90;;;;;;5057925;28;20086;-60
2022/12/10 07:06:14;;;;;;;246.25;27.23;;;-1.80;99.90;;;;;;5072153;28;20032;-62
2022/12/10 07:08:40;;;;;;;143.27;24.08;;;-1.80;99.90;;;;;;5071831;28;20044;-62
2022/12/10 07:11:11;;;;;;;117.13;21.80;;;-1.80;99.90;;;;;;5071902;28;20040;-62
2022/12/10 07:13:36;;;;;;;173.43;23.55;;;-1.70;99.90;;;;;;5072288;28;20051;-62
2022/12/10 07:16:03;;;;;;;85.53;20.95;;;-1.80;99.90;;;;;;5071794;28;20371;-62
2022/12/10 07:18:28;;;;;;;252.85;28.60;;;-1.90;99.90;;;;;;5071453;28;20028;-61
2022/12/10 07:20:54;;;;;;;125.80;22.45;;;-1.90;99.90;;;;;;5073291;28;20116;-61
2022/12/10 07:23:20;;;;;;;73.95;22.48;;;-1.80;99.90;;;;;;5076317;28;20439;-62
2022/12/10 07:25:46;;;;;;;102.60;21.35;;;-1.70;99.90;;;;;;5075329;28;20367;-61
2022/12/10 07:28:12;;;;;;;149.52;23.90;;;-1.70;99.90;;;;;;5076190;28;20104;-64
2022/12/10 07:30:37;;;;;;;74.97;22.30;;;-1.70;99.90;;;;;;5076110;28;20044;-63
2022/12/10 07:33:03;;;;;;;113.97;22.02;;;-1.80;99.90;;;;;;5058439;28;20094;-62
2022/12/10 07:35:28;;;;;;;68.20;22.58;;;-1.70;99.90;;;;;;5075657;28;20032;-61
2022/12/10 07:37:54;;;;;;;236.65;30.80;;;-1.60;99.90;;;;;;5075918;28;20052;-61
2022/12/10 07:40:20;;;;;;;78.90;22.25;;;-1.60;99.90;;;;;;5075724;28;20082;-61
2022/12/10 07:42:45;;;;;;;147.80;24.15;;;-1.70;99.90;;;;;;5057735;28;20040;-61
2022/12/10 07:45:11;;;;;;;76.25;23.10;;;-1.70;99.90;;;;;;5075577;28;20051;-61
2022/12/10 07:47:38;;;;;;;65.60;21.35;;;-1.60;99.90;;;;;;5057798;28;20064;-63
2022/12/10 07:50:04;;;;;;;89.60;22.27;;;-1.60;99.90;;;;;;5075433;28;20052;-62
2022/12/10 07:52:30;;;;;;;73.25;22.65;;;-1.50;99.90;;;;;;5075640;28;20048;-61
2022/12/10 07:54:56;;;;;;;153.10;27.30;;;-1.50;99.90;;;;;;5075559;28;20055;-61
2022/12/10 07:57:21;;;;;;;171.18;26.17;;;-1.60;99.90;;;;;;5075131;28;20039;-61
2022/12/10 07:59:47;;;;;;;100.22;23.10;;;-1.60;99.90;;;;;;5075118;28;20109;-61
2022/12/10 08:02:12;;;;;;;84.07;24.15;;;-1.70;99.90;;;;;;5075172;28;20043;-61
2022/12/10 08:04:38;;;;;;;75.60;21.85;;;-1.60;99.90;;;;;;5074850;28;20097;-63
2022/12/10 08:07:03;;;;;;;74.53;21.70;;;-1.60;99.90;;;;;;5075355;28;20054;-62
2022/12/10 08:09:29;;;;;;;72.30;20.45;;;-1.60;99.90;;;;;;5075049;28;20090;-63
2022/12/10 08:12:02;;;;;;;96.68;25.30;;;-1.50;99.90;;;;;;5074719;28;20112;-60
2022/12/10 08:14:27;;;;;;;109.45;24.88;;;-1.50;99.90;;;;;;5074156;28;20036;-62
2022/12/10 08:16:53;;;;;;;90.75;23.20;;;-1.50;99.90;;;;;;5074422;28;20047;-63
2022/12/10 08:19:18;;;;;;;142.85;26.63;;;-1.50;99.90;;;;;;5074601;28;20516;-61
2022/12/10 08:21:44;;;;;;;152.10;25.92;;;-1.50;99.90;;;;;;5074655;28;20414;-61
2022/12/10 08:24:10;;;;;;;127.15;26.05;;;-1.60;99.90;;;;;;5074382;28;20066;-62
2022/12/10 08:26:35;;;;;;;137.00;26.10;;;-1.50;99.90;;;;;;5074324;28;20075;-61
2022/12/10 08:29:01;;;;;;;77.82;23.20;;;-1.60;99.90;;;;;;5074124;28;20040;-60
2022/12/10 08:31:28;;;;;;;103.07;24.23;;;-1.60;99.90;;;;;;5074037;28;20059;-61
2022/12/10 08:33:53;;;;;;;108.10;24.58;;;-1.60;99.90;;;;;;5056403;28;20040;-61
2022/12/10 08:36:19;;;;;;;123.38;25.92;;;-1.60;99.90;;;;;;5074860;28;20237;-61
2022/12/10 08:38:45;;;;;;;122.88;25.05;;;-1.60;99.90;;;;;;5073950;28;20055;-65
2022/12/10 08:41:17;;;;;;;63.13;22.30;;;-1.60;99.90;;;;;;5073603;28;20044;-62
2022/12/10 08:43:44;;;;;;;112.65;25.88;;;-1.50;99.90;;;;;;5074549;28;20044;-63
2022/12/10 08:46:11;;;;;;;102.78;25.83;;;-1.50;99.90;;;;;;5081996;28;20032;-64
2022/12/10 08:48:37;;;;;;;80.40;24.45;;;-1.50;99.90;;;;;;5088917;28;20125;-63
2022/12/10 08:51:04;;;;;;;91.03;24.38;;;-1.50;99.90;;;;;;5092019;28;20044;-61
2022/12/10 08:53:30;;;;;;;67.18;25.33;;;-1.40;99.90;;;;;;5092758;28;20028;-62
2022/12/10 08:55:56;;;;;;;86.30;24.02;;;-1.20;99.90;;;;;;5089086;28;20353;-61
2022/12/10 08:58:22;;;;;;;82.55;23.40;;;-1.20;99.90;;;;;;5090183;28;20040;-63
2022/12/10 09:00:49;;;;;;;79.93;22.75;;;-1.20;99.90;;;;;;5088105;28;20113;-62
2022/12/10 09:03:15;;;;;;;67.70;23.60;;;-1.30;99.90;;;;;;5087984;28;20042;-60
2022/12/10 09:05:41;;;;;;;61.50;22.08;;;-1.20;99.90;;;;;;5088664;28;20101;-61
2022/12/10 09:08:07;;;;;;;73.63;22.75;;;-1.20;99.90;;;;;;5090178;28;20047;-64
2022/12/10 09:10:32;;;;;;;105.72;27.90;;;-1.10;99.90;;;;;;5090056;28;20041;-62
2022/12/10 09:12:58;;;;;;;104.32;26.40;;;-1.20;99.90;;;;;;5088408;28;20032;-61
2022/12/10 09:15:23;;;;;;;67.47;23.67;;;-1.30;99.90;;;;;;5085538;28;20098;-61
2022/12/10 09:17:49;;;;;;;67.57;22.73;;;-1.30;99.90;;;;;;5089234;28;20068;-62
2022/12/10 09:20:15;;;;;;;61.67;23.00;;;-1.30;99.90;;;;;;5081630;28;20098;-60
2022/12/10 09:22:40;;;;;;;99.53;24.33;;;-1.20;99.90;;;;;;5072483;28;20040;-61
2022/12/10 09:25:09;;;;;;;83.75;24.05;;;-1.10;99.90;;;;;;5085582;28;20075;-62
2022/12/10 09:27:35;;;;;;;58.13;23.50;;;-1.20;99.90;;;;;;5087630;28;20326;-62
2022/12/10 09:30:01;;;;;;;54.97;23.15;;;-1.20;99.90;;;;;;5079421;28;20072;-61
2022/12/10 09:32:27;;;;;;;67.13;23.75;;;-1.20;99.90;;;;;;5073486;28;20037;-62
2022/12/10 09:34:53;;;;;;;81.32;26.73;;;-1.10;99.90;;;;;;5073431;28;20044;-62
2022/12/10 09:37:19;;;;;;;61.40;23.85;;;-1.10;99.90;;;;;;5082886;28;20051;-62
2022/12/10 09:39:45;;;;;;;72.68;23.75;;;-1.00;99.90;;;;;;5072008;28;20372;-61
2022/12/10 09:42:52;;;;;;;58.75;21.60;;;-1.10;99.90;;;;;;5079255;28;20043;-61
2022/12/10 09:45:31;;;;;;;64.82;23.10;;;-1.00;99.90;;;;;;5073136;28;20032;-62
2022/12/10 09:48:10;;;;;;;59.13;22.65;;;-1.00;99.90;;;;;;5077236;28;20191;-63
2022/12/10 09:51:17;;;;;;;60.45;23.60;;;-1.10;99.90;;;;;;5073881;28;20119;-61
2022/12/10 09:53:44;;;;;;;63.22;23.02;;;-0.90;99.90;;;;;;5068616;28;20032;-63
2022/12/10 09:56:33;;;;;;;59.30;22.70;;;-0.90;99.90;;;;;;5072699;28;20465;-62
2022/12/10 09:59:03;;;;;;;62.10;24.55;;;-0.90;99.90;;;;;;5076604;28;20048;-62
2022/12/10 10:01:31;;;;;;;53.05;21.23;;;-0.90;99.90;;;;;;5075031;28;20068;-62
2022/12/10 10:03:56;;;;;;;53.13;21.90;;;-0.90;99.90;;;;;;5077046;28;20040;-60
2022/12/10 10:06:24;;;;;;;57.40;24.60;;;-0.90;99.90;;;;;;5089003;28;20089;-61
2022/12/10 10:08:54;;;;;;;60.42;24.88;;;-0.80;99.90;;;;;;5071145;28;20433;-62
2022/12/10 10:11:24;;;;;;;63.00;23.80;;;-0.80;99.90;;;;;;5083965;28;20032;-62
2022/12/10 10:13:58;;;;;;;62.10;24.38;;;-0.80;99.90;;;;;;5082063;28;20033;-61
2022/12/10 10:16:30;;;;;;;62.75;24.70;;;-0.80;99.90;;;;;;5078955;28;20078;-62
2022/12/10 10:19:11;;;;;;;60.92;23.55;;;-0.80;99.90;;;;;;5089182;28;20054;-62
2022/12/10 10:21:40;;;;;;;60.95;24.48;;;-0.80;99.90;;;;;;5092779;28;20036;-65
2022/12/10 10:24:10;;;;;;;56.35;23.25;;;-0.80;99.90;;;;;;5073052;28;20029;-62
2022/12/10 10:26:35;;;;;;;54.20;20.45;;;-0.80;99.90;;;;;;5082666;28;20360;-63
2022/12/10 10:29:04;;;;;;;58.58;23.15;;;-0.80;99.90;;;;;;5087068;28;20509;-63
2022/12/10 10:31:32;;;;;;;50.83;20.48;;;-0.80;99.90;;;;;;5075822;28;20036;-62
2022/12/10 10:34:04;;;;;;;49.22;21.85;;;-0.80;99.90;;;;;;5065276;28;20052;-62
2022/12/10 10:36:36;;;;;;;56.63;23.63;;;-0.70;99.90;;;;;;5073931;28;20032;-63
2022/12/10 10:39:29;;;;;;;52.15;21.83;;;-0.70;99.90;;;;;;5080042;28;20134;-61
2022/12/10 10:41:57;;;;;;;53.20;20.88;;;-0.70;99.90;;;;;;5074268;28;20522;-62
2022/12/10 10:44:26;;;;;;;62.58;24.50;;;-0.70;99.90;;;;;;5067069;28;20032;-59
2022/12/10 10:46:54;;;;;;;58.33;24.13;;;-0.70;99.90;;;;;;5071286;28;20048;-60
2022/12/10 10:49:22;;;;;;;58.05;24.67;;;-0.60;99.90;;;;;;5071304;28;20415;-61
2022/12/10 10:51:48;;;;;;;52.83;24.13;;;-0.70;99.90;;;;;;5073032;28;20115;-60
2022/12/10 10:54:34;;;;;;;55.13;24.48;;;-0.60;99.90;;;;;;5082170;28;20131;-60
2022/12/10 10:57:36;;;;;;;58.17;22.88;;;-0.60;99.90;;;;;;5071645;28;20059;-61
2022/12/10 11:00:24;;;;;;;57.05;23.65;;;-0.60;99.90;;;;;;5081689;28;20124;-59
2022/12/10 11:02:50;;;;;;;55.83;23.48;;;-0.50;99.90;;;;;;5067563;28;20453;-62
2022/12/10 11:05:28;;;;;;;54.17;22.55;;;-0.50;99.90;;;;;;5075940;28;20036;-61
2022/12/10 11:08:21;;;;;;;59.28;25.05;;;-0.60;99.90;;;;;;5071269;28;20063;-61
2022/12/10 11:10:54;;;;;;;55.05;23.77;;;-0.50;99.90;;;;;;5086940;28;20048;-63
2022/12/10 11:13:29;;;;;;;54.80;22.57;;;-0.40;99.90;;;;;;5053479;28;20036;-64
2022/12/10 11:16:22;;;;;;;56.80;22.08;;;-0.40;99.90;;;;;;5084084;28;20323;-61
2022/12/10 11:19:04;;;;;;;53.58;24.00;;;-0.40;99.90;;;;;;5084362;28;20043;-63
2022/12/10 11:21:32;;;;;;;59.15;23.60;;;-0.40;99.90;;;;;;5084475;28;20055;-61
2022/12/10 11:24:00;;;;;;;56.70;22.52;;;-0.30;99.90;;;;;;5086067;28;20055;-62
2022/12/10 11:26:40;;;;;;;56.28;22.90;;;-0.40;99.90;;;;;;5077604;28;20365;-63
2022/12/10 11:29:16;;;;;;;58.08;22.33;;;-0.30;99.90;;;;;;5056217;28;20044;-64
2022/12/10 11:31:46;;;;;;;59.28;24.17;;;-0.30;99.90;;;;;;5079579;28;20326;-63
2022/12/10 11:34:40;;;;;;;58.83;24.85;;;-0.40;99.90;;;;;;5071970;28;20116;-63
2022/12/10 11:37:27;;;;;;;53.63;23.83;;;-0.30;99.90;;;;;;5064624;28;20628;-62
2022/12/10 11:40:10;;;;;;;56.67;23.85;;;-0.20;99.90;;;;;;5071993;28;20040;-61
2022/12/10 11:43:03;;;;;;;60.53;23.80;;;-0.20;99.90;;;;;;5068871;28;20040;-61
2022/12/10 11:45:45;;;;;;;57.90;23.13;;;-0.20;99.90;;;;;;5083563;28;20148;-61
2022/12/10 11:48:47;;;;;;;54.72;23.83;;;-0.20;99.90;;;;;;5077235;28;20048;-62
2022/12/10 11:52:00;;;;;;;60.30;25.55;;;-0.10;99.90;;;;;;5055061;28;20033;-62
2022/12/10 11:54:37;;;;;;;63.70;25.48;;;-0.10;99.90;;;;;;5037819;28;20080;-62
2022/12/10 11:57:46;;;;;;;57.83;23.02;;;-0.10;99.90;;;;;;5075078;28;20067;-62
2022/12/10 12:00:22;;;;;;;62.53;23.42;;;-0.10;99.90;;;;;;5085535;28;20040;-61
2022/12/10 12:03:15;;;;;;;60.70;25.23;;;0.00;99.90;;;;;;5083423;28;20052;-62
2022/12/10 12:06:03;;;;;;;59.47;25.05;;;0.10;99.90;;;;;;5071770;28;20064;-63
2022/12/10 12:09:06;;;;;;;64.18;26.13;;;0.10;99.90;;;;;;5085115;28;20473;-63
2022/12/10 12:11:59;;;;;;;81.13;33.58;;;0.20;99.90;;;;;;5085656;28;20177;-62
2022/12/10 12:14:44;;;;;;;82.80;35.50;;;0.10;99.90;;;;;;5091230;28;20111;-62
2022/12/10 12:17:27;;;;;;;70.30;27.30;;;0.20;99.90;;;;;;5081265;28;20044;-62
2022/12/10 12:19:57;;;;;;;59.95;24.33;;;0.10;99.90;;;;;;5074971;28;20041;-62
2022/12/10 12:22:27;;;;;;;60.40;25.88;;;0.20;99.90;;;;;;5071028;28;20068;-63
2022/12/10 12:25:14;;;;;;;61.85;25.48;;;0.20;99.90;;;;;;5074892;28;20235;-62
2022/12/10 12:27:52;;;;;;;60.05;25.33;;;0.20;99.90;;;;;;5077102;28;20190;-63
2022/12/10 12:30:20;;;;;;;60.08;24.70;;;0.30;99.90;;;;;;5080450;28;20115;-63
2022/12/10 12:32:55;;;;;;;64.13;25.02;;;0.20;99.90;;;;;;5087358;28;20043;-63
2022/12/10 12:35:41;;;;;;;64.90;27.08;;;0.30;99.90;;;;;;5081064;28;20054;-63
2022/12/10 12:38:25;;;;;;;63.50;25.45;;;0.20;99.90;;;;;;5055689;28;20452;-63
2022/12/10 12:41:25;;;;;;;65.68;26.85;;;0.10;99.90;;;;;;5085089;28;20080;-63
2022/12/10 12:44:14;;;;;;;58.65;24.90;;;0.20;99.90;;;;;;5037543;28;20063;-62
2022/12/10 12:46:44;;;;;;;59.92;24.70;;;0.20;99.90;;;;;;5073123;28;20052;-61
2022/12/10 12:49:36;;;;;;;58.90;23.67;;;0.20;99.90;;;;;;5079461;28;20036;-63
2022/12/10 12:52:27;;;;;;;54.72;23.88;;;0.20;99.90;;;;;;5080341;28;20032;-62